Terminal Aerodrome Forecast
Issued by NWS

Home | Current Version | Previous Version | Text Only | Print | Product List | Glossary On
Versions: 1 2 3 4 5 6 7 8 9 10 11 12 13 14 15 16 17 18 19 20 21 22 23 24 25 26 27
000
FTUS41 KGYX 281120
TAFMHT
TAF
KMHT 281120Z 2812/0112 11003KT P6SM BKN050 OVC100
     FM010000 13005KT 4SM -RA BR OVC015
     FM010400 13004KT 1 1/2SM -RA BR OVC007=

USA.gov is the U.S. government's official web portal to all federal, state and local government web resources and services.